createdAt,value
2018-12-17T00:01:29.012Z,89.74
2018-12-17T00:03:59.730Z,89.87
2018-12-17T00:06:30.001Z,89.26
2018-12-17T00:08:58.838Z,90.41
2018-12-17T00:11:27.273Z,89.70
2018-12-17T00:13:55.522Z,90.37
2018-12-17T00:16:23.792Z,90.47
2018-12-17T00:18:52.439Z,91.20
2018-12-17T00:21:21.245Z,90.86
2018-12-17T00:23:49.541Z,90.59
2018-12-17T00:26:17.811Z,90.92
2018-12-17T00:28:46.231Z,90.22
2018-12-17T00:31:14.773Z,90.06
2018-12-17T00:33:43.033Z,90.73
2018-12-17T00:36:12.115Z,90.98
2018-12-17T00:38:40.362Z,90.05
2018-12-17T00:41:08.763Z,91.00
2018-12-17T00:43:37.180Z,90.04
2018-12-17T00:46:05.786Z,88.90
2018-12-17T00:48:34.139Z,90.39
2018-12-17T00:51:02.455Z,89.75
2018-12-17T00:53:30.765Z,89.17
2018-12-17T00:55:59.630Z,89.34
2018-12-17T00:58:28.195Z,90.44
2018-12-17T01:00:56.750Z,90.41
2018-12-17T01:03:25.044Z,90.69
2018-12-17T01:05:53.652Z,92.29
2018-12-17T01:08:21.975Z,92.25
2018-12-17T01:10:50.569Z,91.12
2018-12-17T01:13:19.546Z,90.93
2018-12-17T01:15:47.914Z,90.63
2018-12-17T01:18:16.255Z,92.24
2018-12-17T01:20:44.705Z,91.68
2018-12-17T01:23:13.097Z,91.91
2018-12-17T01:25:41.665Z,91.06
2018-12-17T01:28:09.980Z,91.09
2018-12-17T01:30:38.265Z,91.00
2018-12-17T01:33:06.902Z,90.54
2018-12-17T01:35:35.741Z,92.22
2018-12-17T01:38:04.631Z,92.06
2018-12-17T01:40:33.393Z,93.16
2018-12-17T01:43:02.140Z,93.79
2018-12-17T01:45:30.548Z,94.82
2018-12-17T01:47:58.822Z,93.97
2018-12-17T01:50:27.071Z,93.97
2018-12-17T01:52:55.774Z,92.86
2018-12-17T01:55:24.039Z,93.51
2018-12-17T01:57:52.363Z,94.49
2018-12-17T02:00:20.665Z,93.83
2018-12-17T02:02:49.199Z,92.56
2018-12-17T02:05:18.945Z,91.26
2018-12-17T02:07:47.257Z,90.75
2018-12-17T02:10:15.638Z,92.10
2018-12-17T02:12:43.985Z,93.32
2018-12-17T02:15:12.536Z,93.44
2018-12-17T02:17:41.016Z,92.47
2018-12-17T02:20:09.597Z,91.83
2018-12-17T02:22:38.159Z,92.25
2018-12-17T02:25:06.511Z,91.60
2018-12-17T02:27:34.757Z,92.08
2018-12-17T02:30:03.401Z,91.76
2018-12-17T02:32:32.774Z,91.55
2018-12-17T02:35:01.227Z,92.05
2018-12-17T02:37:29.582Z,92.28
2018-12-17T02:39:57.882Z,92.22
2018-12-17T02:42:26.737Z,91.37
2018-12-17T02:44:56.058Z,90.88
2018-12-17T02:47:24.305Z,90.65
2018-12-17T02:49:52.597Z,91.19
2018-12-17T02:52:21.319Z,92.13
2018-12-17T02:54:49.960Z,91.69
2018-12-17T02:57:18.427Z,92.11
2018-12-17T02:59:46.679Z,91.80
2018-12-17T03:02:15.395Z,91.95
2018-12-17T03:04:43.742Z,91.36
2018-12-17T03:07:12.355Z,92.23
2018-12-17T03:09:41.036Z,92.22
2018-12-17T03:12:09.281Z,92.48
2018-12-17T03:14:37.636Z,92.21
2018-12-17T03:17:05.897Z,92.68
2018-12-17T03:19:34.618Z,91.85
2018-12-17T03:22:03.179Z,91.97
2018-12-17T03:24:31.447Z,91.21
2018-12-17T03:26:59.710Z,91.43
2018-12-17T03:29:28.088Z,90.69
2018-12-17T03:31:57.410Z,91.18
2018-12-17T03:34:26.057Z,91.91
2018-12-17T03:36:54.890Z,93.69
2018-12-17T03:39:23.429Z,93.79
2018-12-17T03:41:51.684Z,93.44
2018-12-17T03:44:20.220Z,93.49
2018-12-17T03:46:49.743Z,94.41
2018-12-17T03:49:18.017Z,93.41
2018-12-17T03:51:49.062Z,92.71
2018-12-17T03:54:17.334Z,91.19
2018-12-17T03:56:46.078Z,91.45
2018-12-17T03:59:14.785Z,91.97
2018-12-17T04:01:43.058Z,91.93
2018-12-17T04:04:11.531Z,93.14
2018-12-17T04:06:39.777Z,91.83
2018-12-17T04:09:08.145Z,91.87
2018-12-17T04:11:36.765Z,93.02
2018-12-17T04:14:06.106Z,92.93
2018-12-17T04:16:34.729Z,92.92
2018-12-17T04:19:02.971Z,93.46
2018-12-17T04:21:31.394Z,93.63
2018-12-17T04:23:59.981Z,93.73
2018-12-17T04:26:30.404Z,91.46
2018-12-17T04:29:06.491Z,91.10
2018-12-17T04:31:29.563Z,91.09
2018-12-17T04:33:57.792Z,92.02
2018-12-17T04:36:25.996Z,92.73
2018-12-17T04:38:54.815Z,93.67
2018-12-17T04:41:23.078Z,93.36
2018-12-17T04:43:51.774Z,93.15
2018-12-17T04:46:20.011Z,92.80
2018-12-17T04:48:48.351Z,93.00
2018-12-17T04:51:17.569Z,93.31
2018-12-17T04:56:13.666Z,93.01
2018-12-17T04:58:41.896Z,91.28
2018-12-17T05:01:10.378Z,92.04
2018-12-17T05:03:38.677Z,92.92
2018-12-17T05:06:06.957Z,93.76
2018-12-17T05:08:35.166Z,93.53
2018-12-17T05:11:03.655Z,93.57
2018-12-17T05:13:32.525Z,94.17
2018-12-17T05:16:01.259Z,94.67
2018-12-17T05:18:29.560Z,94.40
2018-12-17T05:20:58.326Z,94.22
2018-12-17T05:23:26.761Z,94.63
2018-12-17T05:25:55.011Z,94.42
2018-12-17T05:28:23.617Z,94.87
2018-12-17T05:30:52.174Z,92.86
2018-12-17T05:33:20.795Z,91.77
2018-12-17T05:35:49.317Z,93.63
2018-12-17T05:38:18.074Z,92.55
2018-12-17T05:40:46.791Z,92.77
2018-12-17T05:43:16.608Z,92.31
2018-12-17T05:45:45.180Z,92.01
2018-12-17T05:48:13.414Z,93.01
2018-12-17T05:50:48.971Z,92.63
2018-12-17T05:53:17.359Z,93.44
2018-12-17T05:55:45.754Z,92.31
2018-12-17T05:58:14.052Z,92.44
2018-12-17T06:00:42.640Z,91.90
2018-12-17T06:03:11.219Z,92.23
2018-12-17T06:05:39.522Z,92.21
2018-12-17T06:08:09.821Z,92.44
2018-12-17T06:10:38.404Z,91.55
2018-12-17T06:13:06.719Z,91.14
2018-12-17T06:15:35.214Z,92.25
2018-12-17T06:18:03.724Z,91.76
2018-12-17T06:20:32.160Z,91.81
2018-12-17T06:23:00.481Z,92.48
2018-12-17T06:25:28.993Z,91.74
2018-12-17T06:27:57.522Z,90.88
2018-12-17T06:30:25.847Z,90.18
2018-12-17T06:32:54.714Z,90.46
2018-12-17T06:35:22.941Z,90.90
2018-12-17T06:37:51.621Z,90.19
2018-12-17T06:40:20.061Z,90.04
2018-12-17T06:42:48.622Z,91.10
2018-12-17T06:45:17.271Z,91.45
2018-12-17T06:47:45.565Z,92.13
2018-12-17T06:50:13.821Z,92.80
2018-12-17T06:52:42.891Z,91.02
2018-12-17T06:55:11.098Z,91.01
2018-12-17T06:57:39.585Z,91.55
2018-12-17T07:00:08.873Z,92.67
2018-12-17T07:02:37.439Z,92.48
2018-12-17T07:05:05.979Z,92.49
2018-12-17T07:07:34.183Z,92.85
2018-12-17T07:10:02.508Z,92.02
2018-12-17T07:12:31.156Z,92.27
2018-12-17T07:14:59.674Z,92.10
2018-12-17T07:17:27.963Z,93.42
2018-12-17T07:19:56.394Z,93.07
2018-12-17T07:22:25.262Z,92.68
2018-12-17T07:24:54.669Z,93.20
2018-12-17T07:27:22.963Z,93.27
2018-12-17T07:29:51.277Z,93.59
2018-12-17T07:32:19.572Z,92.42
2018-12-17T07:34:48.934Z,91.79
2018-12-17T07:37:18.248Z,92.56
2018-12-17T07:39:47.453Z,93.10
2018-12-17T07:42:15.753Z,91.96
2018-12-17T07:44:44.003Z,90.49
2018-12-17T07:47:12.522Z,89.65
2018-12-17T07:49:40.769Z,89.25
2018-12-17T07:52:09.294Z,87.92
2018-12-17T07:54:37.527Z,87.15
2018-12-17T07:57:05.873Z,86.28
2018-12-17T07:59:34.371Z,86.65
2018-12-17T08:02:03.041Z,86.37
2018-12-17T08:04:32.719Z,86.98
2018-12-17T08:07:01.021Z,87.21
2018-12-17T08:09:29.417Z,87.60
2018-12-17T08:11:57.734Z,87.53
2018-12-17T08:14:26.061Z,87.08
2018-12-17T08:16:54.832Z,88.38
2018-12-17T08:19:23.241Z,88.60
2018-12-17T08:21:51.773Z,89.07
2018-12-17T08:24:20.022Z,88.23
2018-12-17T08:26:48.314Z,86.71
2018-12-17T08:29:16.599Z,86.54
2018-12-17T08:31:45.206Z,87.95
2018-12-17T08:34:13.467Z,85.45
2018-12-17T08:36:42.067Z,86.13
2018-12-17T08:39:10.536Z,84.78
2018-12-17T08:41:39.192Z,85.20
2018-12-17T08:44:07.450Z,85.53
2018-12-17T08:46:35.689Z,83.25
2018-12-17T08:49:04.003Z,84.50
2018-12-17T08:51:33.281Z,83.33
2018-12-17T08:54:01.805Z,85.19
2018-12-17T08:56:30.356Z,86.69
2018-12-17T08:58:58.891Z,86.49
2018-12-17T09:01:27.609Z,86.98
2018-12-17T09:03:56.035Z,86.77
2018-12-17T09:06:25.155Z,87.76
2018-12-17T09:08:54.181Z,86.11
2018-12-17T09:11:22.445Z,85.36
2018-12-17T09:13:50.732Z,85.41
2018-12-17T09:16:19.303Z,87.03
2018-12-17T09:18:47.910Z,84.75
2018-12-17T09:21:16.485Z,84.77
2018-12-17T09:23:44.776Z,84.76
2018-12-17T09:26:13.006Z,85.01
2018-12-17T09:28:41.562Z,85.26
2018-12-17T09:31:10.147Z,85.90
2018-12-17T09:33:38.528Z,84.78
2018-12-17T09:36:07.510Z,82.73
2018-12-17T09:38:35.867Z,83.40
2018-12-17T09:41:04.099Z,82.59
2018-12-17T09:43:32.699Z,81.42
2018-12-17T09:46:02.072Z,80.89
2018-12-17T09:48:30.301Z,80.11
2018-12-17T09:50:58.611Z,80.14
2018-12-17T09:53:26.921Z,79.63
2018-12-17T09:55:55.496Z,79.41
2018-12-17T09:58:23.845Z,78.63
2018-12-17T10:00:52.455Z,76.34
2018-12-17T10:03:20.945Z,76.39
2018-12-17T10:05:49.250Z,76.05
2018-12-17T10:08:18.070Z,76.51
2018-12-17T10:10:46.532Z,76.77
2018-12-17T10:13:15.066Z,74.04
2018-12-17T10:15:44.152Z,75.37
2018-12-17T10:18:12.794Z,75.96
2018-12-17T10:20:41.336Z,77.52
2018-12-17T10:23:09.626Z,77.85
2018-12-17T10:25:38.165Z,77.08
2018-12-17T10:28:06.723Z,77.97
2018-12-17T10:30:35.207Z,76.05
2018-12-17T10:33:04.639Z,73.32
2018-12-17T10:35:32.855Z,74.33
2018-12-17T10:38:01.977Z,74.39
2018-12-17T10:43:11.693Z,74.48
2018-12-17T10:45:40.103Z,74.31
2018-12-17T10:48:08.434Z,72.91
2018-12-17T10:53:16.383Z,71.10
2018-12-17T10:55:45.717Z,71.89
2018-12-17T10:58:13.969Z,69.91
2018-12-17T11:00:47.893Z,69.37
2018-12-17T11:03:20.701Z,70.49
2018-12-17T11:05:50.730Z,70.79
2018-12-17T11:08:20.339Z,72.09
2018-12-17T11:10:49.138Z,72.14
2018-12-17T11:13:17.725Z,71.65
2018-12-17T11:15:45.986Z,70.94
2018-12-17T11:18:14.491Z,69.60
2018-12-17T11:20:42.709Z,69.96
2018-12-17T11:23:11.247Z,70.79
2018-12-17T11:25:39.500Z,70.61
2018-12-17T11:28:07.821Z,68.87
2018-12-17T11:30:37.028Z,69.47
2018-12-17T11:33:05.763Z,68.71
2018-12-17T11:35:34.043Z,69.11
2018-12-17T11:38:02.856Z,66.80
2018-12-17T11:40:31.348Z,64.02
2018-12-17T11:43:00.575Z,65.35
2018-12-17T11:45:30.956Z,67.28
2018-12-17T11:47:59.447Z,68.15
2018-12-17T11:50:29.661Z,68.12
2018-12-17T11:52:58.648Z,66.03
2018-12-17T11:55:27.206Z,65.96
2018-12-17T11:58:15.230Z,65.43
2018-12-17T12:00:53.969Z,66.80
2018-12-17T12:03:23.199Z,66.08
2018-12-17T12:05:51.434Z,66.39
2018-12-17T12:08:20.397Z,67.13
2018-12-17T12:10:48.992Z,67.98
2018-12-17T12:13:19.165Z,68.43
2018-12-17T12:15:47.406Z,69.11
2018-12-17T12:18:15.996Z,67.90
2018-12-17T12:20:44.572Z,67.53
2018-12-17T12:23:13.440Z,67.71
2018-12-17T12:25:42.020Z,67.12
2018-12-17T12:28:10.321Z,69.36
2018-12-17T12:30:39.577Z,69.92
2018-12-17T12:33:08.282Z,68.88
2018-12-17T12:35:36.897Z,69.58
2018-12-17T12:38:05.199Z,68.55
2018-12-17T12:40:33.829Z,68.72
2018-12-17T12:43:03.024Z,69.54
2018-12-17T12:45:31.650Z,69.71
2018-12-17T12:48:00.766Z,70.23
2018-12-17T12:50:30.531Z,70.48
2018-12-17T12:53:00.342Z,71.27
2018-12-17T12:55:28.913Z,70.76
2018-12-17T12:58:03.398Z,70.72
2018-12-17T13:00:28.371Z,71.02
2018-12-17T13:02:57.272Z,70.91
2018-12-17T13:05:25.569Z,71.17
2018-12-17T13:07:54.152Z,71.40
2018-12-17T13:10:22.551Z,70.23
2018-12-17T13:12:51.319Z,70.64
2018-12-17T13:15:19.615Z,70.58
2018-12-17T13:17:48.890Z,71.27
2018-12-17T13:20:17.243Z,71.63
2018-12-17T13:22:47.065Z,71.50
2018-12-17T13:25:27.642Z,71.37
2018-12-17T13:27:55.907Z,71.16
2018-12-17T13:30:24.509Z,72.51
2018-12-17T13:32:52.725Z,73.18
2018-12-17T13:35:21.369Z,72.86
2018-12-17T13:37:49.721Z,73.21
2018-12-17T13:40:19.370Z,73.09
2018-12-17T13:42:48.033Z,73.12
2018-12-17T13:45:16.646Z,72.40
2018-12-17T13:47:45.166Z,72.98
2018-12-17T13:50:19.184Z,74.46
2018-12-17T13:52:47.397Z,75.26
2018-12-17T13:55:15.880Z,75.07
2018-12-17T13:57:44.198Z,75.05
2018-12-17T14:00:13.094Z,75.61
2018-12-17T14:02:41.873Z,75.87
2018-12-17T14:05:10.184Z,77.45
2018-12-17T14:07:38.408Z,77.20
2018-12-17T14:10:15.351Z,78.62
2018-12-17T14:12:43.955Z,76.93
2018-12-17T14:15:13.194Z,75.71
2018-12-17T14:20:31.966Z,75.93
2018-12-17T14:23:00.708Z,76.03
2018-12-17T14:25:29.387Z,75.30
2018-12-17T14:27:57.698Z,75.60
2018-12-17T14:30:25.929Z,76.23
2018-12-17T14:32:54.149Z,75.82
2018-12-17T14:35:22.433Z,75.42
2018-12-17T14:37:59.293Z,75.60
2018-12-17T14:40:28.366Z,75.60
2018-12-17T14:42:56.891Z,76.37
2018-12-17T14:45:25.390Z,76.14
2018-12-17T14:47:54.049Z,75.42
2018-12-17T14:50:22.477Z,76.08
2018-12-17T14:52:51.258Z,75.24
2018-12-17T14:55:19.653Z,75.43
2018-12-17T14:57:48.165Z,74.92
2018-12-17T15:00:16.765Z,74.33
2018-12-17T15:02:45.799Z,75.65
2018-12-17T15:05:19.628Z,76.37
2018-12-17T15:07:48.391Z,76.53
2018-12-17T15:10:17.134Z,75.81
2018-12-17T15:12:46.018Z,75.45
2018-12-17T15:15:14.307Z,75.18
2018-12-17T15:17:43.920Z,75.89
2018-12-17T15:20:12.391Z,76.37
2018-12-17T15:22:41.204Z,77.35
2018-12-17T15:25:10.443Z,76.63
2018-12-17T15:27:39.369Z,75.72
2018-12-17T15:30:07.776Z,75.55
2018-12-17T15:32:36.085Z,76.86
2018-12-17T15:35:04.689Z,76.03
2018-12-17T15:37:33.934Z,75.53
2018-12-17T15:40:02.691Z,76.07
2018-12-17T15:42:30.998Z,76.59
2018-12-17T15:44:59.306Z,76.27
2018-12-17T15:47:28.314Z,76.63
2018-12-17T15:49:56.574Z,75.12
2018-12-17T15:52:25.270Z,74.54
2018-12-17T15:54:53.636Z,74.71
2018-12-17T15:57:21.895Z,73.53
2018-12-17T15:59:51.494Z,74.19
2018-12-17T16:02:20.018Z,73.81
2018-12-17T16:04:48.357Z,73.20
2018-12-17T16:07:16.865Z,74.25
2018-12-17T16:09:45.199Z,75.89
2018-12-17T16:12:13.497Z,75.27
2018-12-17T16:14:42.038Z,74.97
2018-12-17T16:17:15.331Z,74.70
2018-12-17T16:19:44.802Z,74.25
2018-12-17T16:22:13.057Z,75.21
2018-12-17T16:24:41.420Z,74.93
2018-12-17T16:27:09.769Z,74.78
2018-12-17T16:29:41.780Z,75.19
2018-12-17T16:32:10.214Z,74.95
2018-12-17T16:34:38.955Z,75.96
2018-12-17T16:37:07.831Z,76.62
2018-12-17T16:39:38.706Z,76.13
2018-12-17T16:42:10.016Z,76.67
2018-12-17T16:44:38.656Z,76.70
2018-12-17T16:47:07.936Z,78.21
2018-12-17T16:49:37.536Z,77.34
2018-12-17T16:52:09.811Z,76.75
2018-12-17T16:54:38.286Z,77.35
2018-12-17T16:57:06.542Z,77.54
2018-12-17T16:59:34.834Z,77.67
2018-12-17T17:02:04.592Z,78.46
2018-12-17T17:04:33.801Z,78.81
2018-12-17T17:07:02.462Z,78.29
2018-12-17T17:09:31.863Z,78.50
2018-12-17T17:12:00.313Z,78.81
2018-12-17T17:14:28.780Z,78.62
2018-12-17T17:16:57.357Z,78.16
2018-12-17T17:19:26.276Z,77.90
2018-12-17T17:21:55.810Z,78.35
2018-12-17T17:24:24.331Z,78.54
2018-12-17T17:26:52.801Z,77.57
2018-12-17T17:29:21.058Z,78.02
2018-12-17T17:31:49.717Z,76.25
2018-12-17T17:34:17.993Z,77.74
2018-12-17T17:36:48.414Z,76.98
2018-12-17T17:39:16.654Z,77.05
2018-12-17T17:41:44.904Z,75.72
2018-12-17T17:44:13.371Z,77.20
2018-12-17T17:46:41.663Z,76.23
2018-12-17T17:49:09.997Z,75.87
2018-12-17T17:51:38.500Z,76.10
2018-12-17T17:54:07.376Z,75.76
2018-12-17T17:56:36.454Z,75.97
2018-12-17T17:59:04.835Z,75.71
2018-12-17T18:01:33.203Z,76.58
2018-12-17T18:04:02.231Z,76.03
2018-12-17T18:06:30.570Z,77.15
2018-12-17T18:08:58.853Z,76.89
2018-12-17T18:11:27.174Z,77.44
2018-12-17T18:13:55.497Z,77.47
2018-12-17T18:16:24.106Z,77.04
2018-12-17T18:18:53.368Z,76.96
2018-12-17T18:21:22.000Z,76.80
2018-12-17T18:23:50.423Z,76.81
2018-12-17T18:26:19.554Z,76.72
2018-12-17T18:28:48.860Z,77.17
2018-12-17T18:31:17.732Z,77.46
2018-12-17T18:33:47.773Z,76.79
2018-12-17T18:36:17.030Z,76.72
2018-12-17T18:38:45.864Z,77.26
2018-12-17T18:41:14.170Z,76.81
2018-12-17T18:43:42.753Z,77.07
2018-12-17T18:46:11.254Z,77.57
2018-12-17T18:48:39.934Z,78.09
2018-12-17T18:51:08.914Z,78.47
2018-12-17T18:53:37.175Z,78.51
2018-12-17T18:56:05.926Z,77.84
2018-12-17T18:58:35.261Z,77.99
2018-12-17T19:01:04.132Z,77.37
2018-12-17T19:03:33.453Z,77.72
2018-12-17T19:06:01.808Z,78.05
2018-12-17T19:08:30.017Z,77.66
2018-12-17T19:10:58.499Z,77.95
2018-12-17T19:13:27.226Z,78.26
2018-12-17T19:15:56.288Z,78.57
2018-12-17T19:18:25.455Z,79.83
2018-12-17T19:20:54.061Z,79.88
2018-12-17T19:23:23.373Z,80.50
2018-12-17T19:25:51.774Z,80.10
2018-12-17T19:28:20.089Z,80.26
2018-12-17T19:30:49.184Z,80.71
2018-12-17T19:33:17.515Z,81.65
2018-12-17T19:35:45.845Z,82.14
2018-12-17T19:38:14.005Z,83.35
2018-12-17T19:40:42.278Z,83.24
2018-12-17T19:43:10.576Z,82.25
2018-12-17T19:45:39.117Z,81.37
2018-12-17T19:48:07.321Z,81.71
2018-12-17T19:53:14.617Z,82.26
2018-12-17T19:55:43.087Z,82.91
2018-12-17T19:58:11.344Z,83.02
2018-12-17T20:00:40.044Z,82.46
2018-12-17T20:03:08.457Z,82.40
2018-12-17T20:05:36.721Z,82.50
2018-12-17T20:08:05.117Z,82.97
2018-12-17T20:10:33.609Z,83.13
2018-12-17T20:13:02.703Z,83.72
2018-12-17T20:15:31.054Z,83.88
2018-12-17T20:18:00.082Z,84.27
2018-12-17T20:20:28.809Z,83.98
2018-12-17T20:22:58.079Z,84.35
2018-12-17T20:25:28.104Z,83.82
2018-12-17T20:27:56.988Z,83.26
2018-12-17T20:30:25.502Z,83.00
2018-12-17T20:32:53.881Z,83.36
2018-12-17T20:35:22.338Z,83.57
2018-12-17T20:37:50.977Z,83.68
2018-12-17T20:40:19.549Z,83.11
2018-12-17T20:42:48.063Z,84.16
2018-12-17T20:45:16.332Z,83.84
2018-12-17T20:47:44.621Z,83.93
2018-12-17T20:50:12.855Z,84.05
2018-12-17T20:52:41.440Z,84.52
2018-12-17T20:55:09.750Z,84.63
2018-12-17T20:57:38.331Z,84.94
2018-12-17T21:00:07.041Z,84.51
2018-12-17T21:02:36.367Z,84.27
2018-12-17T21:05:05.690Z,83.34
2018-12-17T21:07:34.308Z,83.53
2018-12-17T21:10:03.422Z,82.85
2018-12-17T21:12:32.140Z,83.15
2018-12-17T21:15:01.548Z,83.09
2018-12-17T21:17:31.130Z,83.45
2018-12-17T21:20:00.318Z,82.85
2018-12-17T21:22:29.442Z,82.73
2018-12-17T21:24:57.992Z,82.91
2018-12-17T21:27:26.273Z,83.19
2018-12-17T21:29:54.699Z,82.86
2018-12-17T21:32:22.971Z,83.61
2018-12-17T21:34:51.203Z,83.27
2018-12-17T21:37:19.786Z,83.28
2018-12-17T21:39:48.327Z,83.90
2018-12-17T21:42:16.818Z,84.15
2018-12-17T21:44:45.027Z,84.18
2018-12-17T21:47:13.322Z,85.65
2018-12-17T21:49:41.729Z,85.00
2018-12-17T21:52:10.579Z,86.08
2018-12-17T21:54:39.102Z,86.35
2018-12-17T21:57:07.546Z,86.47
2018-12-17T21:59:36.115Z,85.44
2018-12-17T22:02:04.399Z,85.29
2018-12-17T22:04:32.728Z,84.75
2018-12-17T22:07:01.436Z,84.45
2018-12-17T22:09:29.630Z,84.52
2018-12-17T22:11:58.054Z,83.19
2018-12-17T22:14:26.669Z,83.99
2018-12-17T22:16:55.023Z,84.39
2018-12-17T22:19:24.378Z,84.29
2018-12-17T22:21:52.627Z,83.87
2018-12-17T22:24:21.185Z,83.21
2018-12-17T22:26:49.456Z,84.01
2018-12-17T22:29:18.273Z,83.04
2018-12-17T22:31:46.511Z,83.16
2018-12-17T22:34:14.749Z,82.28
2018-12-17T22:39:22.828Z,82.33
2018-12-17T22:44:30.336Z,82.54
2018-12-17T22:46:59.061Z,82.66
2018-12-17T22:49:27.481Z,82.41
2018-12-17T22:51:55.800Z,83.50
2018-12-17T22:54:24.144Z,82.36
2018-12-17T22:56:52.831Z,83.66
2018-12-17T22:59:21.152Z,82.80
2018-12-17T23:01:49.335Z,83.40
2018-12-17T23:04:17.873Z,83.66
2018-12-17T23:06:46.456Z,83.03
2018-12-17T23:09:13.325Z,83.62
2018-12-17T23:12:06.559Z,84.02
2018-12-17T23:14:52.345Z,83.87
2018-12-17T23:17:37.829Z,85.54
2018-12-17T23:20:06.785Z,85.99
2018-12-17T23:22:39.869Z,87.00
2018-12-17T23:25:10.457Z,87.14
2018-12-17T23:27:45.692Z,86.87
2018-12-17T23:30:15.587Z,85.83
2018-12-17T23:32:43.881Z,85.88
2018-12-17T23:35:12.593Z,85.39
2018-12-17T23:37:40.828Z,85.50
2018-12-17T23:40:10.275Z,85.44
2018-12-17T23:42:38.931Z,85.17
2018-12-17T23:45:07.931Z,84.51
2018-12-17T23:47:37.561Z,84.25
2018-12-17T23:50:06.886Z,84.45
2018-12-17T23:52:36.224Z,84.28
2018-12-17T23:55:05.548Z,84.46
2018-12-17T23:57:33.833Z,83.43
